sensor_id;sensor_type;location;lat;lon;timestamp;pressure;altitude;pressure_sealevel;temperature
42197;BMP280;27866;48.146;17.098;2024-03-17T00:03:52;100042.38;;;16.54
42197;BMP280;27866;48.146;17.098;2024-03-17T00:08:05;100040.00;;;16.42
42197;BMP280;27866;48.146;17.098;2024-03-17T00:12:16;100041.38;;;16.37
42197;BMP280;27866;48.146;17.098;2024-03-17T00:16:28;100049.44;;;16.34
42197;BMP280;27866;48.146;17.098;2024-03-17T00:20:39;100045.38;;;16.41
42197;BMP280;27866;48.146;17.098;2024-03-17T00:24:51;100039.31;;;16.50
42197;BMP280;27866;48.146;17.098;2024-03-17T00:29:03;100052.69;;;16.47
42197;BMP280;27866;48.146;17.098;2024-03-17T00:33:14;100060.47;;;16.28
42197;BMP280;27866;48.146;17.098;2024-03-17T00:37:26;100068.66;;;16.15
42197;BMP280;27866;48.146;17.098;2024-03-17T00:41:38;100059.50;;;16.00
42197;BMP280;27866;48.146;17.098;2024-03-17T00:45:53;100043.50;;;15.85
42197;BMP280;27866;48.146;17.098;2024-03-17T00:50:05;100058.75;;;15.69
42197;BMP280;27866;48.146;17.098;2024-03-17T00:54:18;100053.59;;;15.59
42197;BMP280;27866;48.146;17.098;2024-03-17T00:58:30;100046.41;;;15.51
42197;BMP280;27866;48.146;17.098;2024-03-17T01:02:41;100057.34;;;15.46
42197;BMP280;27866;48.146;17.098;2024-03-17T01:06:53;100054.81;;;15.35
42197;BMP280;27866;48.146;17.098;2024-03-17T01:11:04;100070.25;;;15.27
42197;BMP280;27866;48.146;17.098;2024-03-17T01:15:19;100061.53;;;15.18
42197;BMP280;27866;48.146;17.098;2024-03-17T01:19:32;100054.19;;;15.12
42197;BMP280;27866;48.146;17.098;2024-03-17T01:23:43;100065.41;;;15.03
42197;BMP280;27866;48.146;17.098;2024-03-17T01:27:55;100070.13;;;15.09
42197;BMP280;27866;48.146;17.098;2024-03-17T01:32:07;100057.94;;;14.99
42197;BMP280;27866;48.146;17.098;2024-03-17T01:36:18;100078.50;;;14.82
42197;BMP280;27866;48.146;17.098;2024-03-17T01:40:30;100072.81;;;14.66
42197;BMP280;27866;48.146;17.098;2024-03-17T01:44:42;100084.56;;;14.61
42197;BMP280;27866;48.146;17.098;2024-03-17T01:48:54;100088.13;;;14.49
42197;BMP280;27866;48.146;17.098;2024-03-17T01:53:06;100072.66;;;14.37
42197;BMP280;27866;48.146;17.098;2024-03-17T01:57:19;100065.88;;;14.24
42197;BMP280;27866;48.146;17.098;2024-03-17T02:01:31;100111.59;;;14.18
42197;BMP280;27866;48.146;17.098;2024-03-17T02:05:43;100123.78;;;14.06
42197;BMP280;27866;48.146;17.098;2024-03-17T02:09:57;100136.69;;;13.97
42197;BMP280;27866;48.146;17.098;2024-03-17T02:14:08;100116.06;;;13.84
42197;BMP280;27866;48.146;17.098;2024-03-17T02:18:20;100125.72;;;13.71
42197;BMP280;27866;48.146;17.098;2024-03-17T02:22:31;100121.19;;;13.62
42197;BMP280;27866;48.146;17.098;2024-03-17T02:26:43;100115.00;;;13.53
42197;BMP280;27866;48.146;17.098;2024-03-17T02:30:55;100119.13;;;13.45
42197;BMP280;27866;48.146;17.098;2024-03-17T02:35:07;100123.22;;;13.36
42197;BMP280;27866;48.146;17.098;2024-03-17T02:39:18;100143.66;;;13.30
42197;BMP280;27866;48.146;17.098;2024-03-17T02:43:48;100144.44;;;13.20
42197;BMP280;27866;48.146;17.098;2024-03-17T02:48:00;100151.25;;;13.10
42197;BMP280;27866;48.146;17.098;2024-03-17T02:52:11;100152.63;;;13.03
42197;BMP280;27866;48.146;17.098;2024-03-17T02:56:23;100151.28;;;12.98
42197;BMP280;27866;48.146;17.098;2024-03-17T03:00:34;100148.69;;;12.98
42197;BMP280;27866;48.146;17.098;2024-03-17T03:04:46;100167.72;;;12.99
42197;BMP280;27866;48.146;17.098;2024-03-17T03:08:59;100162.75;;;12.96
42197;BMP280;27866;48.146;17.098;2024-03-17T03:13:11;100162.03;;;12.94
42197;BMP280;27866;48.146;17.098;2024-03-17T03:17:22;100165.38;;;12.84
42197;BMP280;27866;48.146;17.098;2024-03-17T03:21:35;100168.25;;;12.69
42197;BMP280;27866;48.146;17.098;2024-03-17T03:25:47;100189.44;;;12.63
42197;BMP280;27866;48.146;17.098;2024-03-17T03:29:59;100179.56;;;12.68
42197;BMP280;27866;48.146;17.098;2024-03-17T03:34:11;100180.28;;;12.70
42197;BMP280;27866;48.146;17.098;2024-03-17T03:38:23;100183.53;;;12.61
42197;BMP280;27866;48.146;17.098;2024-03-17T03:42:34;100170.84;;;12.45
42197;BMP280;27866;48.146;17.098;2024-03-17T03:46:46;100171.81;;;12.31
42197;BMP280;27866;48.146;17.098;2024-03-17T03:50:57;100181.25;;;12.20
42197;BMP280;27866;48.146;17.098;2024-03-17T03:55:10;100184.69;;;12.09
42197;BMP280;27866;48.146;17.098;2024-03-17T03:59:21;100184.28;;;12.02
42197;BMP280;27866;48.146;17.098;2024-03-17T04:03:34;100184.78;;;11.95
42197;BMP280;27866;48.146;17.098;2024-03-17T04:07:46;100170.75;;;11.86
42197;BMP280;27866;48.146;17.098;2024-03-17T04:11:58;100188.59;;;11.78
42197;BMP280;27866;48.146;17.098;2024-03-17T04:16:09;100194.19;;;11.72
42197;BMP280;27866;48.146;17.098;2024-03-17T04:20:21;100202.19;;;11.69
42197;BMP280;27866;48.146;17.098;2024-03-17T04:24:33;100207.06;;;11.61
42197;BMP280;27866;48.146;17.098;2024-03-17T04:28:44;100223.00;;;11.56
42197;BMP280;27866;48.146;17.098;2024-03-17T04:32:56;100214.78;;;11.49
42197;BMP280;27866;48.146;17.098;2024-03-17T04:37:07;100224.63;;;11.44
42197;BMP280;27866;48.146;17.098;2024-03-17T04:41:19;100228.53;;;11.38
42197;BMP280;27866;48.146;17.098;2024-03-17T04:45:31;100231.34;;;11.35
42197;BMP280;27866;48.146;17.098;2024-03-17T04:49:43;100236.06;;;11.29
42197;BMP280;27866;48.146;17.098;2024-03-17T04:53:55;100244.25;;;11.23
42197;BMP280;27866;48.146;17.098;2024-03-17T04:58:06;100250.50;;;11.19
42197;BMP280;27866;48.146;17.098;2024-03-17T05:02:18;100254.13;;;11.16
42197;BMP280;27866;48.146;17.098;2024-03-17T05:06:29;100255.25;;;11.13
42197;BMP280;27866;48.146;17.098;2024-03-17T05:10:41;100260.84;;;11.07
42197;BMP280;27866;48.146;17.098;2024-03-17T05:14:52;100272.22;;;11.04
42197;BMP280;27866;48.146;17.098;2024-03-17T05:19:04;100276.44;;;11.05
42197;BMP280;27866;48.146;17.098;2024-03-17T05:23:16;100274.69;;;11.06
42197;BMP280;27866;48.146;17.098;2024-03-17T05:27:27;100274.81;;;11.04
42197;BMP280;27866;48.146;17.098;2024-03-17T05:31:39;100283.31;;;11.06
42197;BMP280;27866;48.146;17.098;2024-03-17T05:35:51;100292.47;;;11.12
42197;BMP280;27866;48.146;17.098;2024-03-17T05:40:04;100299.63;;;11.22
42197;BMP280;27866;48.146;17.098;2024-03-17T05:44:16;100300.78;;;11.30
42197;BMP280;27866;48.146;17.098;2024-03-17T05:48:28;100309.00;;;11.36
42197;BMP280;27866;48.146;17.098;2024-03-17T05:52:40;100315.28;;;11.72
42197;BMP280;27866;48.146;17.098;2024-03-17T05:56:51;100303.31;;;13.40
42197;BMP280;27866;48.146;17.098;2024-03-17T06:01:03;100296.91;;;15.21
42197;BMP280;27866;48.146;17.098;2024-03-17T06:05:15;100295.78;;;16.86
42197;BMP280;27866;48.146;17.098;2024-03-17T06:09:26;100292.84;;;18.13
42197;BMP280;27866;48.146;17.098;2024-03-17T06:13:38;100295.06;;;19.34
42197;BMP280;27866;48.146;17.098;2024-03-17T06:17:52;100289.22;;;20.26
42197;BMP280;27866;48.146;17.098;2024-03-17T06:22:04;100297.53;;;20.55
42197;BMP280;27866;48.146;17.098;2024-03-17T06:26:16;100305.41;;;22.02
42197;BMP280;27866;48.146;17.098;2024-03-17T06:30:28;100296.16;;;23.06
42197;BMP280;27866;48.146;17.098;2024-03-17T06:34:39;100302.09;;;23.23
42197;BMP280;27866;48.146;17.098;2024-03-17T06:38:51;100295.63;;;23.26
42197;BMP280;27866;48.146;17.098;2024-03-17T06:43:02;100303.06;;;23.30
42197;BMP280;27866;48.146;17.098;2024-03-17T06:47:14;100294.88;;;24.43
42197;BMP280;27866;48.146;17.098;2024-03-17T06:51:26;100299.06;;;24.30
42197;BMP280;27866;48.146;17.098;2024-03-17T06:55:37;100307.91;;;23.56
42197;BMP280;27866;48.146;17.098;2024-03-17T06:59:49;100316.75;;;21.54
42197;BMP280;27866;48.146;17.098;2024-03-17T07:04:00;100314.28;;;20.54
42197;BMP280;27866;48.146;17.098;2024-03-17T07:08:12;100328.41;;;19.59
42197;BMP280;27866;48.146;17.098;2024-03-17T07:12:25;100333.09;;;17.46
42197;BMP280;27866;48.146;17.098;2024-03-17T07:16:37;100340.28;;;18.19
42197;BMP280;27866;48.146;17.098;2024-03-17T07:20:48;100321.22;;;21.21
42197;BMP280;27866;48.146;17.098;2024-03-17T07:25:00;100321.81;;;21.40
42197;BMP280;27866;48.146;17.098;2024-03-17T07:29:12;100325.81;;;21.52
42197;BMP280;27866;48.146;17.098;2024-03-17T07:33:24;100327.50;;;21.28
42197;BMP280;27866;48.146;17.098;2024-03-17T07:37:36;100338.53;;;19.55
42197;BMP280;27866;48.146;17.098;2024-03-17T07:41:47;100332.19;;;19.13
42197;BMP280;27866;48.146;17.098;2024-03-17T07:50:15;100336.59;;;17.27
42197;BMP280;27866;48.146;17.098;2024-03-17T07:54:26;100335.50;;;19.50
42197;BMP280;27866;48.146;17.098;2024-03-17T07:58:39;100324.38;;;21.57
42197;BMP280;27866;48.146;17.098;2024-03-17T08:02:51;100319.34;;;21.47
42197;BMP280;27866;48.146;17.098;2024-03-17T08:07:03;100334.56;;;19.94
42197;BMP280;27866;48.146;17.098;2024-03-17T08:11:15;100335.84;;;20.07
42197;BMP280;27866;48.146;17.098;2024-03-17T08:15:27;100323.78;;;21.78
42197;BMP280;27866;48.146;17.098;2024-03-17T08:19:38;100312.06;;;22.91
42197;BMP280;27866;48.146;17.098;2024-03-17T08:23:50;100307.41;;;22.15
42197;BMP280;27866;48.146;17.098;2024-03-17T08:28:02;100303.13;;;22.30
42197;BMP280;27866;48.146;17.098;2024-03-17T08:32:14;100301.47;;;23.14
42197;BMP280;27866;48.146;17.098;2024-03-17T08:36:26;100297.47;;;23.25
42197;BMP280;27866;48.146;17.098;2024-03-17T08:40:39;100293.53;;;23.06
42197;BMP280;27866;48.146;17.098;2024-03-17T08:44:52;100290.25;;;22.89
42197;BMP280;27866;48.146;17.098;2024-03-17T08:49:04;100294.22;;;23.00
42197;BMP280;27866;48.146;17.098;2024-03-17T08:53:16;100290.84;;;25.33
42197;BMP280;27866;48.146;17.098;2024-03-17T08:57:28;100293.72;;;23.57
42197;BMP280;27866;48.146;17.098;2024-03-17T09:01:39;100280.66;;;25.64
42197;BMP280;27866;48.146;17.098;2024-03-17T09:05:51;100279.56;;;27.15
42197;BMP280;27866;48.146;17.098;2024-03-17T09:10:06;100273.94;;;28.15
42197;BMP280;27866;48.146;17.098;2024-03-17T09:14:18;100266.84;;;28.91
42197;BMP280;27866;48.146;17.098;2024-03-17T09:18:30;100262.97;;;28.75
42197;BMP280;27866;48.146;17.098;2024-03-17T09:22:42;100284.09;;;29.14
42197;BMP280;27866;48.146;17.098;2024-03-17T09:26:53;100279.69;;;29.44
42197;BMP280;27866;48.146;17.098;2024-03-17T09:31:05;100269.06;;;30.36
42197;BMP280;27866;48.146;17.098;2024-03-17T09:35:18;100266.72;;;31.75
42197;BMP280;27866;48.146;17.098;2024-03-17T09:39:30;100265.31;;;31.14
42197;BMP280;27866;48.146;17.098;2024-03-17T09:43:41;100257.09;;;29.65
42197;BMP280;27866;48.146;17.098;2024-03-17T09:47:53;100270.88;;;27.01
42197;BMP280;27866;48.146;17.098;2024-03-17T09:52:05;100263.19;;;26.24
42197;BMP280;27866;48.146;17.098;2024-03-17T09:56:22;100277.75;;;26.08
42197;BMP280;27866;48.146;17.098;2024-03-17T10:00:34;100275.31;;;24.23
42197;BMP280;27866;48.146;17.098;2024-03-17T10:04:46;100274.19;;;24.17
42197;BMP280;27866;48.146;17.098;2024-03-17T10:08:59;100275.00;;;23.96
42197;BMP280;27866;48.146;17.098;2024-03-17T10:13:15;100282.59;;;23.99
42197;BMP280;27866;48.146;17.098;2024-03-17T10:17:31;100265.06;;;26.24
42197;BMP280;27866;48.146;17.098;2024-03-17T10:21:45;100265.19;;;30.55
42197;BMP280;27866;48.146;17.098;2024-03-17T10:25:59;100251.47;;;30.16
42197;BMP280;27866;48.146;17.098;2024-03-17T10:30:18;100251.31;;;27.92
42197;BMP280;27866;48.146;17.098;2024-03-17T10:34:33;100240.88;;;30.33
42197;BMP280;27866;48.146;17.098;2024-03-17T10:38:53;100239.72;;;31.41
42197;BMP280;27866;48.146;17.098;2024-03-17T10:43:06;100241.34;;;29.33
42197;BMP280;27866;48.146;17.098;2024-03-17T10:47:26;100238.69;;;29.88
42197;BMP280;27866;48.146;17.098;2024-03-17T10:51:38;100231.72;;;32.56
42197;BMP280;27866;48.146;17.098;2024-03-17T10:55:50;100229.34;;;33.32
42197;BMP280;27866;48.146;17.098;2024-03-17T11:00:04;100224.69;;;32.72
42197;BMP280;27866;48.146;17.098;2024-03-17T11:04:17;100209.84;;;34.56
42197;BMP280;27866;48.146;17.098;2024-03-17T11:08:30;100213.03;;;30.70
42197;BMP280;27866;48.146;17.098;2024-03-17T11:12:49;100219.63;;;33.53
42197;BMP280;27866;48.146;17.098;2024-03-17T11:17:18;100215.03;;;33.54
42197;BMP280;27866;48.146;17.098;2024-03-17T11:21:29;100206.28;;;33.58
42197;BMP280;27866;48.146;17.098;2024-03-17T11:25:41;100203.13;;;32.50
42197;BMP280;27866;48.146;17.098;2024-03-17T11:29:52;100185.09;;;34.27
42197;BMP280;27866;48.146;17.098;2024-03-17T11:34:04;100164.69;;;36.19
42197;BMP280;27866;48.146;17.098;2024-03-17T11:38:57;100173.69;;;35.99
42197;BMP280;27866;48.146;17.098;2024-03-17T11:43:17;100153.38;;;36.48
42197;BMP280;27866;48.146;17.098;2024-03-17T11:47:36;100165.03;;;34.18
42197;BMP280;27866;48.146;17.098;2024-03-17T11:51:49;100159.28;;;29.65
42197;BMP280;27866;48.146;17.098;2024-03-17T11:56:01;100165.50;;;29.52
42197;BMP280;27866;48.146;17.098;2024-03-17T12:00:21;100159.38;;;28.84
42197;BMP280;27866;48.146;17.098;2024-03-17T12:04:39;100143.28;;;29.09
42197;BMP280;27866;48.146;17.098;2024-03-17T12:08:51;100125.94;;;30.33
42197;BMP280;27866;48.146;17.098;2024-03-17T12:13:03;100125.09;;;32.29
42197;BMP280;27866;48.146;17.098;2024-03-17T12:17:21;100110.44;;;32.87
42197;BMP280;27866;48.146;17.098;2024-03-17T12:21:33;100103.22;;;34.71
42197;BMP280;27866;48.146;17.098;2024-03-17T12:25:47;100102.38;;;36.21
42197;BMP280;27866;48.146;17.098;2024-03-17T12:29:59;100092.06;;;35.41
42197;BMP280;27866;48.146;17.098;2024-03-17T12:34:11;100088.34;;;34.84
42197;BMP280;27866;48.146;17.098;2024-03-17T12:38:23;100080.88;;;36.00
42197;BMP280;27866;48.146;17.098;2024-03-17T12:42:34;100072.09;;;31.06
42197;BMP280;27866;48.146;17.098;2024-03-17T12:46:54;100073.88;;;30.12
42197;BMP280;27866;48.146;17.098;2024-03-17T12:51:14;100070.19;;;33.36
42197;BMP280;27866;48.146;17.098;2024-03-17T12:55:25;100057.97;;;34.15
42197;BMP280;27866;48.146;17.098;2024-03-17T12:59:55;100058.63;;;31.29
42197;BMP280;27866;48.146;17.098;2024-03-17T13:04:25;100055.81;;;29.24
42197;BMP280;27866;48.146;17.098;2024-03-17T13:08:37;100059.38;;;26.92
42197;BMP280;27866;48.146;17.098;2024-03-17T13:12:57;100042.38;;;26.93
42197;BMP280;27866;48.146;17.098;2024-03-17T13:17:15;100039.44;;;25.42
42197;BMP280;27866;48.146;17.098;2024-03-17T13:21:30;100049.69;;;25.11
42197;BMP280;27866;48.146;17.098;2024-03-17T13:25:42;100038.59;;;24.73
42197;BMP280;27866;48.146;17.098;2024-03-17T13:29:56;100035.56;;;26.78
42197;BMP280;27866;48.146;17.098;2024-03-17T13:34:07;100029.94;;;24.99
42197;BMP280;27866;48.146;17.098;2024-03-17T13:38:20;100025.09;;;26.31
42197;BMP280;27866;48.146;17.098;2024-03-17T13:42:31;100006.75;;;28.02
42197;BMP280;27866;48.146;17.098;2024-03-17T13:46:43;99999.59;;;30.79
42197;BMP280;27866;48.146;17.098;2024-03-17T13:50:55;99992.91;;;30.52
42197;BMP280;27866;48.146;17.098;2024-03-17T13:55:12;99991.13;;;32.00
42197;BMP280;27866;48.146;17.098;2024-03-17T13:59:24;99986.91;;;32.71
42197;BMP280;27866;48.146;17.098;2024-03-17T14:03:36;99983.09;;;30.47
42197;BMP280;27866;48.146;17.098;2024-03-17T14:07:48;99979.56;;;28.49
42197;BMP280;27866;48.146;17.098;2024-03-17T14:12:00;99969.88;;;29.16
42197;BMP280;27866;48.146;17.098;2024-03-17T14:16:11;99967.59;;;31.01
42197;BMP280;27866;48.146;17.098;2024-03-17T14:20:23;99959.94;;;31.95
42197;BMP280;27866;48.146;17.098;2024-03-17T14:24:34;99952.53;;;32.46
42197;BMP280;27866;48.146;17.098;2024-03-17T14:28:46;99949.06;;;30.36
42197;BMP280;27866;48.146;17.098;2024-03-17T14:32:57;99954.31;;;30.08
42197;BMP280;27866;48.146;17.098;2024-03-17T14:37:09;99953.41;;;30.13
42197;BMP280;27866;48.146;17.098;2024-03-17T14:41:23;99948.41;;;28.62
42197;BMP280;27866;48.146;17.098;2024-03-17T14:45:35;99947.81;;;30.21
42197;BMP280;27866;48.146;17.098;2024-03-17T14:49:46;99944.78;;;29.77
42197;BMP280;27866;48.146;17.098;2024-03-17T14:53:58;99943.28;;;26.66
42197;BMP280;27866;48.146;17.098;2024-03-17T14:58:11;99931.81;;;26.14
42197;BMP280;27866;48.146;17.098;2024-03-17T15:02:23;99926.31;;;27.56
42197;BMP280;27866;48.146;17.098;2024-03-17T15:06:36;99913.06;;;28.79
42197;BMP280;27866;48.146;17.098;2024-03-17T15:10:48;99915.91;;;28.77
42197;BMP280;27866;48.146;17.098;2024-03-17T15:15:00;99911.66;;;28.70
42197;BMP280;27866;48.146;17.098;2024-03-17T15:19:12;99901.13;;;29.11
42197;BMP280;27866;48.146;17.098;2024-03-17T15:23:23;99903.41;;;29.14
42197;BMP280;27866;48.146;17.098;2024-03-17T15:27:44;99888.34;;;28.04
42197;BMP280;27866;48.146;17.098;2024-03-17T15:31:56;99892.38;;;24.64
42197;BMP280;27866;48.146;17.098;2024-03-17T15:36:10;99902.75;;;22.97
42197;BMP280;27866;48.146;17.098;2024-03-17T15:40:22;99905.56;;;21.62
42197;BMP280;27866;48.146;17.098;2024-03-17T15:44:34;99900.69;;;20.66
42197;BMP280;27866;48.146;17.098;2024-03-17T15:48:46;99907.03;;;19.93
42197;BMP280;27866;48.146;17.098;2024-03-17T15:52:58;99905.75;;;19.40
42197;BMP280;27866;48.146;17.098;2024-03-17T15:57:09;99913.13;;;18.95
42197;BMP280;27866;48.146;17.098;2024-03-17T16:01:21;99915.47;;;18.64
42197;BMP280;27866;48.146;17.098;2024-03-17T16:05:32;99913.63;;;18.30
42197;BMP280;27866;48.146;17.098;2024-03-17T16:09:45;99927.44;;;18.23
42197;BMP280;27866;48.146;17.098;2024-03-17T16:13:59;99929.50;;;18.03
42197;BMP280;27866;48.146;17.098;2024-03-17T16:18:11;99937.38;;;17.77
42197;BMP280;27866;48.146;17.098;2024-03-17T16:22:23;99941.25;;;17.64
42197;BMP280;27866;48.146;17.098;2024-03-17T16:26:36;99939.25;;;17.40
42197;BMP280;27866;48.146;17.098;2024-03-17T16:30:55;99947.03;;;17.23
42197;BMP280;27866;48.146;17.098;2024-03-17T16:35:07;99946.22;;;17.04
42197;BMP280;27866;48.146;17.098;2024-03-17T16:39:19;99951.03;;;16.99
42197;BMP280;27866;48.146;17.098;2024-03-17T16:44:11;99956.81;;;16.84
42197;BMP280;27866;48.146;17.098;2024-03-17T16:48:24;99956.66;;;16.67
42197;BMP280;27866;48.146;17.098;2024-03-17T16:52:36;99961.19;;;16.47
42197;BMP280;27866;48.146;17.098;2024-03-17T16:56:48;99951.81;;;16.35
42197;BMP280;27866;48.146;17.098;2024-03-17T17:01:00;99950.25;;;16.23
42197;BMP280;27866;48.146;17.098;2024-03-17T17:05:12;99943.63;;;16.10
42197;BMP280;27866;48.146;17.098;2024-03-17T17:09:24;99951.16;;;16.04
42197;BMP280;27866;48.146;17.098;2024-03-17T17:13:36;99947.00;;;15.93
42197;BMP280;27866;48.146;17.098;2024-03-17T17:17:48;99953.38;;;15.79
42197;BMP280;27866;48.146;17.098;2024-03-17T17:22:02;99954.00;;;15.63
42197;BMP280;27866;48.146;17.098;2024-03-17T17:26:22;99952.31;;;15.53
42197;BMP280;27866;48.146;17.098;2024-03-17T17:30:34;99957.63;;;15.42
42197;BMP280;27866;48.146;17.098;2024-03-17T17:34:45;99958.41;;;15.34
42197;BMP280;27866;48.146;17.098;2024-03-17T17:38:57;99966.97;;;15.25
42197;BMP280;27866;48.146;17.098;2024-03-17T17:43:09;99956.75;;;15.13
42197;BMP280;27866;48.146;17.098;2024-03-17T17:47:20;99957.06;;;14.99
42197;BMP280;27866;48.146;17.098;2024-03-17T17:51:32;99970.59;;;14.93
42197;BMP280;27866;48.146;17.098;2024-03-17T17:55:44;99972.66;;;14.90
42197;BMP280;27866;48.146;17.098;2024-03-17T17:59:56;99971.38;;;14.85
42197;BMP280;27866;48.146;17.098;2024-03-17T18:04:07;99971.25;;;14.86
42197;BMP280;27866;48.146;17.098;2024-03-17T18:08:22;99967.88;;;14.95
42197;BMP280;27866;48.146;17.098;2024-03-17T18:12:34;99968.50;;;15.07
42197;BMP280;27866;48.146;17.098;2024-03-17T18:16:46;99967.94;;;15.24
42197;BMP280;27866;48.146;17.098;2024-03-17T18:20:59;99969.91;;;15.31
42197;BMP280;27866;48.146;17.098;2024-03-17T18:25:12;99977.16;;;15.28
42197;BMP280;27866;48.146;17.098;2024-03-17T18:29:24;99975.44;;;15.18
42197;BMP280;27866;48.146;17.098;2024-03-17T18:33:36;99969.13;;;15.00
42197;BMP280;27866;48.146;17.098;2024-03-17T18:37:48;99976.19;;;14.89
42197;BMP280;27866;48.146;17.098;2024-03-17T18:42:08;99977.66;;;14.82
42197;BMP280;27866;48.146;17.098;2024-03-17T18:46:21;99979.06;;;14.86
42197;BMP280;27866;48.146;17.098;2024-03-17T18:50:33;99980.06;;;14.94
42197;BMP280;27866;48.146;17.098;2024-03-17T18:54:48;99975.25;;;14.90
42197;BMP280;27866;48.146;17.098;2024-03-17T18:59:00;99989.72;;;14.83
42197;BMP280;27866;48.146;17.098;2024-03-17T19:03:12;99986.38;;;14.81
42197;BMP280;27866;48.146;17.098;2024-03-17T19:07:24;99989.75;;;14.73
42197;BMP280;27866;48.146;17.098;2024-03-17T19:11:39;99987.44;;;14.59
42197;BMP280;27866;48.146;17.098;2024-03-17T19:16:06;99999.88;;;14.45
42197;BMP280;27866;48.146;17.098;2024-03-17T19:20:19;100007.16;;;14.31
42197;BMP280;27866;48.146;17.098;2024-03-17T19:24:32;100003.88;;;14.19
42197;BMP280;27866;48.146;17.098;2024-03-17T19:28:44;100006.47;;;14.08
42197;BMP280;27866;48.146;17.098;2024-03-17T19:32:55;99999.75;;;13.95
42197;BMP280;27866;48.146;17.098;2024-03-17T19:37:07;100007.09;;;13.90
42197;BMP280;27866;48.146;17.098;2024-03-17T19:41:18;100007.09;;;13.90
42197;BMP280;27866;48.146;17.098;2024-03-17T19:45:30;99997.25;;;13.83
42197;BMP280;27866;48.146;17.098;2024-03-17T19:49:41;100002.47;;;13.72
42197;BMP280;27866;48.146;17.098;2024-03-17T19:53:53;100013.78;;;13.61
42197;BMP280;27866;48.146;17.098;2024-03-17T19:58:05;100018.28;;;13.59
42197;BMP280;27866;48.146;17.098;2024-03-17T20:02:16;100015.25;;;13.75
42197;BMP280;27866;48.146;17.098;2024-03-17T20:06:28;100020.44;;;13.96
42197;BMP280;27866;48.146;17.098;2024-03-17T20:10:40;100015.72;;;14.12
42197;BMP280;27866;48.146;17.098;2024-03-17T20:14:55;100025.19;;;14.23
42197;BMP280;27866;48.146;17.098;2024-03-17T20:19:07;100015.81;;;14.32
42197;BMP280;27866;48.146;17.098;2024-03-17T20:23:18;100013.44;;;14.39
42197;BMP280;27866;48.146;17.098;2024-03-17T20:27:30;100013.84;;;14.55
42197;BMP280;27866;48.146;17.098;2024-03-17T20:31:41;100012.16;;;14.64
42197;BMP280;27866;48.146;17.098;2024-03-17T20:35:53;100004.69;;;14.71
42197;BMP280;27866;48.146;17.098;2024-03-17T20:40:07;100004.47;;;14.63
42197;BMP280;27866;48.146;17.098;2024-03-17T20:44:22;100002.34;;;14.57
42197;BMP280;27866;48.146;17.098;2024-03-17T20:48:34;100009.03;;;14.50
42197;BMP280;27866;48.146;17.098;2024-03-17T20:52:46;100006.56;;;14.38
42197;BMP280;27866;48.146;17.098;2024-03-17T20:56:57;100018.66;;;14.39
42197;BMP280;27866;48.146;17.098;2024-03-17T21:01:11;100014.50;;;14.37
42197;BMP280;27866;48.146;17.098;2024-03-17T21:05:24;100006.47;;;14.29
42197;BMP280;27866;48.146;17.098;2024-03-17T21:09:36;100005.63;;;14.29
42197;BMP280;27866;48.146;17.098;2024-03-17T21:13:48;99997.56;;;14.32
42197;BMP280;27866;48.146;17.098;2024-03-17T21:18:00;99991.88;;;14.27
42197;BMP280;27866;48.146;17.098;2024-03-17T21:22:12;99991.44;;;14.22
42197;BMP280;27866;48.146;17.098;2024-03-17T21:26:23;99993.22;;;14.21
42197;BMP280;27866;48.146;17.098;2024-03-17T21:30:35;99992.75;;;14.17
42197;BMP280;27866;48.146;17.098;2024-03-17T21:34:50;99988.03;;;14.00
42197;BMP280;27866;48.146;17.098;2024-03-17T21:39:02;99991.72;;;13.77
42197;BMP280;27866;48.146;17.098;2024-03-17T21:43:19;99984.44;;;13.59
42197;BMP280;27866;48.146;17.098;2024-03-17T21:47:30;99984.66;;;13.45
42197;BMP280;27866;48.146;17.098;2024-03-17T21:51:42;99985.25;;;13.38
42197;BMP280;27866;48.146;17.098;2024-03-17T21:55:57;99984.91;;;13.42
42197;BMP280;27866;48.146;17.098;2024-03-17T22:00:10;99978.88;;;13.42
42197;BMP280;27866;48.146;17.098;2024-03-17T22:04:24;99970.03;;;13.44
42197;BMP280;27866;48.146;17.098;2024-03-17T22:08:35;99970.97;;;13.54
42197;BMP280;27866;48.146;17.098;2024-03-17T22:12:47;99973.09;;;13.70
42197;BMP280;27866;48.146;17.098;2024-03-17T22:16:58;99967.44;;;13.87
42197;BMP280;27866;48.146;17.098;2024-03-17T22:21:10;99971.69;;;13.98
42197;BMP280;27866;48.146;17.098;2024-03-17T22:25:23;99966.50;;;14.09
42197;BMP280;27866;48.146;17.098;2024-03-17T22:29:36;99969.09;;;14.09
42197;BMP280;27866;48.146;17.098;2024-03-17T22:33:47;99981.28;;;14.08
42197;BMP280;27866;48.146;17.098;2024-03-17T22:38:01;99972.31;;;14.02
42197;BMP280;27866;48.146;17.098;2024-03-17T22:42:12;99969.09;;;13.98
42197;BMP280;27866;48.146;17.098;2024-03-17T22:46:24;99964.84;;;13.97
42197;BMP280;27866;48.146;17.098;2024-03-17T22:50:36;99955.63;;;13.93
42197;BMP280;27866;48.146;17.098;2024-03-17T22:54:47;99955.72;;;13.81
42197;BMP280;27866;48.146;17.098;2024-03-17T22:58:59;99952.53;;;13.67
42197;BMP280;27866;48.146;17.098;2024-03-17T23:03:11;99942.34;;;13.64
42197;BMP280;27866;48.146;17.098;2024-03-17T23:07:22;99940.34;;;13.57
42197;BMP280;27866;48.146;17.098;2024-03-17T23:11:34;99939.28;;;13.38
42197;BMP280;27866;48.146;17.098;2024-03-17T23:15:46;99933.81;;;13.20
42197;BMP280;27866;48.146;17.098;2024-03-17T23:19:57;99933.31;;;13.04
42197;BMP280;27866;48.146;17.098;2024-03-17T23:24:09;99937.06;;;12.90
42197;BMP280;27866;48.146;17.098;2024-03-17T23:28:20;99939.28;;;12.84
42197;BMP280;27866;48.146;17.098;2024-03-17T23:32:32;99923.81;;;12.82
42197;BMP280;27866;48.146;17.098;2024-03-17T23:36:43;99933.69;;;12.67
42197;BMP280;27866;48.146;17.098;2024-03-17T23:40:55;99932.97;;;12.65
42197;BMP280;27866;48.146;17.098;2024-03-17T23:45:08;99927.53;;;12.68
42197;BMP280;27866;48.146;17.098;2024-03-17T23:49:19;99934.44;;;12.79